Time;durP1;ratioP1;P1;durP2;ratioP2;P2;SDS_P1;SDS_P2;PMS_P1;PMS_P2;Temp;Humidity;BMP_temperature;BMP_pressure;BME280_temperature;BME280_humidity;BME280_pressure;Samples;Min_cycle;Max_cycle;Signal;HPM_P1;HPM_P2
2022/07/27 00:01:30;;;;;;;7.38;1.30;;;15.70;99.90;;;;;;5040740;28;20081;-61
2022/07/27 00:03:55;;;;;;;5.03;1.48;;;15.90;99.90;;;;;;5027795;28;20013;-61
2022/07/27 00:06:21;;;;;;;4.38;1.10;;;15.90;99.90;;;;;;5030645;28;20120;-60
2022/07/27 00:08:47;;;;;;;5.07;1.02;;;15.90;99.90;;;;;;5027914;28;20199;-61
2022/07/27 00:11:12;;;;;;;4.28;1.30;;;16.00;99.90;;;;;;5031427;28;20366;-61
2022/07/27 00:13:38;;;;;;;3.80;1.10;;;16.10;99.90;;;;;;5040649;28;20021;-60
2022/07/27 00:16:04;;;;;;;3.97;1.10;;;16.20;99.90;;;;;;5031706;28;20037;-61
2022/07/27 00:18:32;;;;;;;2.58;1.00;;;16.00;99.90;;;;;;5046264;28;20029;-60
2022/07/27 00:20:58;;;;;;;4.45;1.30;;;15.90;99.90;;;;;;5029419;28;20116;-61
2022/07/27 00:23:24;;;;;;;6.50;1.40;;;15.90;99.90;;;;;;5034994;28;20068;-61
2022/07/27 00:25:49;;;;;;;3.67;1.20;;;15.80;99.90;;;;;;5030135;28;20029;-60
2022/07/27 00:28:15;;;;;;;4.40;1.15;;;15.90;99.90;;;;;;5043406;28;20020;-60
2022/07/27 00:30:40;;;;;;;4.65;1.00;;;16.00;99.90;;;;;;5029250;28;20044;-61
2022/07/27 00:33:06;;;;;;;4.38;1.48;;;15.90;99.90;;;;;;5027153;28;20115;-61
2022/07/27 00:35:32;;;;;;;4.53;1.38;;;15.80;99.90;;;;;;5031011;28;20148;-61
2022/07/27 00:37:57;;;;;;;5.13;1.35;;;15.70;99.90;;;;;;5030591;28;20036;-61
2022/07/27 00:40:24;;;;;;;4.38;1.17;;;15.60;99.90;;;;;;5027495;28;20029;-61
2022/07/27 00:42:50;;;;;;;8.70;1.60;;;15.60;99.90;;;;;;5031680;28;20032;-60
2022/07/27 00:45:16;;;;;;;4.40;1.33;;;15.60;99.90;;;;;;5032277;28;20037;-61
2022/07/27 00:47:41;;;;;;;6.40;1.40;;;15.50;99.90;;;;;;5025102;28;20028;-61
2022/07/27 00:50:08;;;;;;;6.22;1.35;;;15.50;99.90;;;;;;5025316;28;20040;-60
2022/07/27 00:52:34;;;;;;;5.38;1.48;;;15.50;99.90;;;;;;5030360;28;20029;-60
2022/07/27 00:55:00;;;;;;;3.58;1.50;;;15.70;99.90;;;;;;5042253;28;20068;-61
2022/07/27 00:57:27;;;;;;;4.32;1.30;;;15.70;99.90;;;;;;5032722;28;20580;-61
2022/07/27 00:59:53;;;;;;;6.03;1.20;;;15.40;99.90;;;;;;5025063;28;20027;-60
2022/07/27 01:02:18;;;;;;;8.52;1.38;;;15.30;99.90;;;;;;5036721;28;20112;-60
2022/07/27 01:04:44;;;;;;;8.15;1.50;;;15.20;99.90;;;;;;5026012;28;20103;-61
2022/07/27 01:07:11;;;;;;;6.15;1.50;;;15.10;99.90;;;;;;5031321;28;20037;-60
2022/07/27 01:09:55;;;;;;;7.07;1.60;;;15.20;99.90;;;;;;5029835;28;20021;-61
2022/07/27 01:12:23;;;;;;;3.40;1.30;;;15.10;99.90;;;;;;5036541;28;20489;-60
2022/07/27 01:14:50;;;;;;;7.13;1.45;;;14.90;99.90;;;;;;5037678;28;20028;-60
2022/07/27 01:17:17;;;;;;;4.80;1.50;;;15.00;99.90;;;;;;5026846;28;20420;-61
2022/07/27 01:19:43;;;;;;;7.65;1.80;;;14.80;99.90;;;;;;5039891;28;20114;-61
2022/07/27 01:22:09;;;;;;;7.60;1.40;;;15.00;99.90;;;;;;5027101;28;20021;-61
2022/07/27 01:24:35;;;;;;;6.15;1.67;;;15.20;99.90;;;;;;5030445;28;20036;-61
2022/07/27 01:27:02;;;;;;;5.53;1.65;;;15.00;99.90;;;;;;5042335;28;20028;-60
2022/07/27 01:29:28;;;;;;;5.25;1.40;;;15.00;99.90;;;;;;5025233;28;20021;-60
2022/07/27 01:31:54;;;;;;;6.07;1.63;;;15.00;99.90;;;;;;5029866;28;20038;-61
2022/07/27 01:34:20;;;;;;;5.93;1.63;;;14.90;99.90;;;;;;5028881;28;20096;-61
2022/07/27 01:36:45;;;;;;;3.10;1.38;;;14.90;99.90;;;;;;5026231;28;20030;-61
2022/07/27 01:39:12;;;;;;;6.93;1.60;;;15.00;99.90;;;;;;5030215;28;20035;-61
2022/07/27 01:41:38;;;;;;;6.15;1.40;;;15.00;99.90;;;;;;5037271;28;20397;-60
2022/07/27 01:44:04;;;;;;;5.97;1.73;;;15.10;99.90;;;;;;5037604;28;20026;-61
2022/07/27 01:46:29;;;;;;;5.15;1.60;;;15.10;99.90;;;;;;5026817;28;20053;-60
2022/07/27 01:48:55;;;;;;;4.78;1.40;;;14.90;99.90;;;;;;5029519;28;20024;-60
2022/07/27 01:51:21;;;;;;;3.33;1.15;;;15.00;99.90;;;;;;5033941;28;20325;-60
2022/07/27 01:53:46;;;;;;;5.15;1.65;;;15.00;99.90;;;;;;5031063;28;20031;-61
2022/07/27 01:56:12;;;;;;;5.93;1.50;;;15.00;99.90;;;;;;5030672;28;20036;-61
2022/07/27 01:58:39;;;;;;;8.00;1.70;;;15.00;99.90;;;;;;5031133;28;20603;-61
2022/07/27 02:01:05;;;;;;;4.13;1.50;;;15.00;99.90;;;;;;5030253;28;20037;-61
2022/07/27 02:03:31;;;;;;;5.45;1.48;;;15.00;99.90;;;;;;5031166;28;20053;-61
2022/07/27 02:05:57;;;;;;;7.82;1.58;;;14.90;99.90;;;;;;5029467;28;20067;-61
2022/07/27 02:08:23;;;;;;;4.82;1.50;;;14.80;99.90;;;;;;5030214;28;20025;-60
2022/07/27 02:13:33;;;;;;;5.30;1.27;;;14.50;99.90;;;;;;5030063;28;20019;-60
2022/07/27 02:15:59;;;;;;;7.80;1.80;;;14.70;99.90;;;;;;5029351;28;20041;-60
2022/07/27 02:18:25;;;;;;;4.55;1.50;;;14.70;99.90;;;;;;5039637;28;20116;-61
2022/07/27 02:20:50;;;;;;;6.35;1.67;;;14.80;99.90;;;;;;5031014;28;20029;-61
2022/07/27 02:23:16;;;;;;;4.55;1.77;;;14.70;99.90;;;;;;5030019;28;20033;-61
2022/07/27 02:25:42;;;;;;;5.55;1.58;;;14.70;99.90;;;;;;5034269;28;20052;-61
2022/07/27 02:28:08;;;;;;;7.15;1.83;;;14.50;99.90;;;;;;5024416;28;20038;-60
2022/07/27 02:30:34;;;;;;;5.53;1.80;;;14.60;99.90;;;;;;5031786;28;20028;-60
2022/07/27 02:32:59;;;;;;;4.68;1.73;;;14.50;99.90;;;;;;5029196;28;20064;-60
2022/07/27 02:35:25;;;;;;;4.40;1.92;;;14.50;99.90;;;;;;5033466;28;20041;-61
2022/07/27 02:37:51;;;;;;;4.93;1.65;;;14.50;99.90;;;;;;5029408;28;20115;-61
2022/07/27 02:40:17;;;;;;;5.63;1.50;;;14.40;99.90;;;;;;5027629;28;20037;-61
2022/07/27 02:42:43;;;;;;;7.28;1.88;;;14.50;99.90;;;;;;5028402;28;20040;-61
2022/07/27 02:45:09;;;;;;;4.05;1.60;;;14.40;99.90;;;;;;5032455;28;20052;-60
2022/07/27 02:47:35;;;;;;;8.25;2.00;;;14.30;99.90;;;;;;5029226;28;20025;-60
2022/07/27 02:50:01;;;;;;;5.00;1.90;;;14.30;99.90;;;;;;5028003;28;20408;-61
2022/07/27 02:52:27;;;;;;;2.53;1.60;;;14.10;99.90;;;;;;5029804;28;20551;-60
2022/07/27 02:54:53;;;;;;;5.10;1.80;;;14.10;99.90;;;;;;5027042;28;20037;-60
2022/07/27 02:57:19;;;;;;;5.70;2.13;;;14.30;99.90;;;;;;5024492;28;20821;-60
2022/07/27 02:59:44;;;;;;;4.75;1.77;;;14.10;99.90;;;;;;5027576;28;20469;-60
2022/07/27 03:02:10;;;;;;;4.85;2.03;;;14.20;99.90;;;;;;5030674;28;20333;-61
2022/07/27 03:04:35;;;;;;;5.20;1.83;;;14.10;99.90;;;;;;5026061;28;20025;-60
2022/07/27 03:07:01;;;;;;;5.30;2.20;;;14.00;99.90;;;;;;5029584;28;20707;-61
2022/07/27 03:09:27;;;;;;;5.30;1.80;;;14.10;99.90;;;;;;5029556;28;20030;-60
2022/07/27 03:11:52;;;;;;;6.53;2.10;;;14.10;99.90;;;;;;5031203;28;20480;-61
2022/07/27 03:14:18;;;;;;;5.78;2.55;;;14.20;99.90;;;;;;5030576;28;20103;-60
2022/07/27 03:16:44;;;;;;;6.20;2.17;;;14.10;99.90;;;;;;5040060;28;20021;-60
2022/07/27 03:19:10;;;;;;;6.18;2.00;;;13.90;99.90;;;;;;5041960;28;20141;-60
2022/07/27 03:21:36;;;;;;;6.85;2.13;;;13.90;99.90;;;;;;5035915;28;20410;-60
2022/07/27 03:24:02;;;;;;;5.32;2.28;;;14.00;99.90;;;;;;5026813;28;20036;-60
2022/07/27 03:26:29;;;;;;;5.28;2.15;;;13.90;99.90;;;;;;5039661;28;20156;-60
2022/07/27 03:28:56;;;;;;;4.40;2.05;;;13.90;99.90;;;;;;5033108;28;20634;-60
2022/07/27 03:31:21;;;;;;;3.60;2.10;;;13.90;99.90;;;;;;5039631;28;20037;-60
2022/07/27 03:33:47;;;;;;;6.18;2.30;;;13.90;99.90;;;;;;5032872;28;20107;-61
2022/07/27 03:36:12;;;;;;;5.07;2.10;;;13.90;99.90;;;;;;5033383;28;20033;-60
2022/07/27 03:38:38;;;;;;;7.50;2.58;;;13.80;99.90;;;;;;5039796;28;20434;-60
2022/07/27 03:41:05;;;;;;;5.00;2.22;;;13.90;99.90;;;;;;5051423;28;20040;-60
2022/07/27 03:43:31;;;;;;;5.13;1.98;;;13.80;99.90;;;;;;5037259;28;20041;-60
2022/07/27 03:45:57;;;;;;;5.20;2.22;;;13.70;99.90;;;;;;5031698;28;20066;-60
2022/07/27 03:48:22;;;;;;;5.82;2.10;;;13.70;99.90;;;;;;5032562;28;20061;-61
2022/07/27 03:50:48;;;;;;;8.38;2.08;;;13.60;99.90;;;;;;5035913;28;20029;-60
2022/07/27 03:53:13;;;;;;;5.03;2.35;;;13.60;99.90;;;;;;5036193;28;20075;-60
2022/07/27 03:55:39;;;;;;;5.80;1.83;;;13.60;99.90;;;;;;5030449;28;20033;-60
2022/07/27 03:58:05;;;;;;;5.50;2.40;;;13.60;99.90;;;;;;5032944;28;20694;-60
2022/07/27 04:00:30;;;;;;;9.50;2.25;;;13.40;99.90;;;;;;5038121;28;20362;-60
2022/07/27 04:02:56;;;;;;;6.60;2.30;;;13.50;99.90;;;;;;5033047;28;20021;-60
2022/07/27 04:05:21;;;;;;;4.28;2.15;;;13.40;99.90;;;;;;5029770;28;20021;-60
2022/07/27 04:07:47;;;;;;;7.80;2.42;;;13.40;99.90;;;;;;5034932;28;20075;-61
2022/07/27 04:10:13;;;;;;;4.47;2.10;;;13.60;99.90;;;;;;5026718;28;20097;-61
2022/07/27 04:12:38;;;;;;;5.88;2.17;;;13.50;99.90;;;;;;5038601;28;20506;-60
2022/07/27 04:15:05;;;;;;;6.05;2.13;;;13.40;99.90;;;;;;5030142;28;20025;-60
2022/07/27 04:17:31;;;;;;;4.53;2.30;;;13.40;99.90;;;;;;5037783;28;20052;-60
2022/07/27 04:19:57;;;;;;;4.78;2.20;;;13.40;99.90;;;;;;5045552;28;20060;-61
2022/07/27 04:22:22;;;;;;;4.90;2.15;;;13.40;99.90;;;;;;5029890;28;20217;-60
2022/07/27 04:24:48;;;;;;;3.58;2.40;;;13.40;99.90;;;;;;5026834;28;20496;-60
2022/07/27 04:27:14;;;;;;;5.53;2.35;;;13.60;99.90;;;;;;5033972;28;20025;-60
2022/07/27 04:29:39;;;;;;;5.90;2.70;;;13.40;99.90;;;;;;5036832;28;20037;-60
2022/07/27 04:32:07;;;;;;;7.05;2.30;;;13.30;99.90;;;;;;5035650;28;20429;-60
2022/07/27 04:34:34;;;;;;;5.18;2.45;;;13.40;99.90;;;;;;5040053;28;20041;-61
2022/07/27 04:37:00;;;;;;;8.25;2.65;;;13.50;99.90;;;;;;5029010;28;20814;-60
2022/07/27 04:39:26;;;;;;;5.65;2.70;;;13.50;99.90;;;;;;5027822;28;20029;-60
2022/07/27 04:41:51;;;;;;;8.55;2.63;;;13.40;99.90;;;;;;5029189;28;20071;-60
2022/07/27 04:44:17;;;;;;;4.18;2.63;;;13.50;99.90;;;;;;5030942;28;20100;-60
2022/07/27 04:46:42;;;;;;;4.40;2.70;;;13.50;99.90;;;;;;5028699;28;20086;-60
2022/07/27 04:49:08;;;;;;;6.53;3.00;;;13.30;99.90;;;;;;5037819;28;20026;-60
2022/07/27 04:51:34;;;;;;;6.28;3.15;;;13.50;99.90;;;;;;5028992;28;20354;-60
2022/07/27 04:54:00;;;;;;;4.97;2.85;;;13.50;99.90;;;;;;5029808;28;20036;-60
2022/07/27 04:56:26;;;;;;;7.93;3.38;;;13.60;99.90;;;;;;5034711;28;20079;-60
2022/07/27 04:58:51;;;;;;;8.27;3.88;;;13.60;99.90;;;;;;5028745;28;20488;-60
2022/07/27 05:01:17;;;;;;;7.57;4.07;;;13.70;99.90;;;;;;5029645;28;20033;-60
2022/07/27 05:03:43;;;;;;;11.13;3.85;;;13.80;99.90;;;;;;5033495;28;20400;-60
2022/07/27 05:06:09;;;;;;;7.78;4.50;;;;;;;;;;5026424;28;20525;-60
2022/07/27 05:08:34;;;;;;;8.25;4.30;;;14.10;99.90;;;;;;5029200;28;20017;-60
2022/07/27 05:11:00;;;;;;;8.10;4.50;;;14.10;99.90;;;;;;5026107;28;20033;-60
2022/07/27 05:13:26;;;;;;;9.55;5.00;;;14.30;99.90;;;;;;5034966;28;20439;-60
2022/07/27 05:15:51;;;;;;;10.38;4.72;;;14.40;99.90;;;;;;5031107;28;20481;-60
2022/07/27 05:18:17;;;;;;;9.73;4.88;;;14.60;99.90;;;;;;5032416;28;20492;-60
2022/07/27 05:20:43;;;;;;;9.25;4.88;;;14.30;99.90;;;;;;5025649;28;20105;-61
2022/07/27 05:23:09;;;;;;;12.85;5.40;;;14.50;99.90;;;;;;5029017;28;20105;-60
2022/07/27 05:25:35;;;;;;;7.85;4.43;;;14.30;99.90;;;;;;5027246;28;20578;-60
2022/07/27 05:28:00;;;;;;;8.10;4.97;;;14.30;99.90;;;;;;5034465;28;20022;-60
2022/07/27 05:30:26;;;;;;;7.95;4.40;;;14.40;99.90;;;;;;5032822;28;20017;-60
2022/07/27 05:32:52;;;;;;;6.68;4.50;;;14.40;99.90;;;;;;5034418;28;20112;-61
2022/07/27 05:35:18;;;;;;;9.13;4.97;;;14.50;99.90;;;;;;5025108;28;20024;-61
2022/07/27 05:37:43;;;;;;;10.73;4.80;;;14.70;99.90;;;;;;5028732;28;20432;-60
2022/07/27 05:40:11;;;;;;;6.57;4.80;;;14.60;99.90;;;;;;5042488;28;20051;-60
2022/07/27 05:42:36;;;;;;;9.25;4.63;;;14.70;99.90;;;;;;5026646;28;20030;-60
2022/07/27 05:45:02;;;;;;;7.55;4.65;;;14.70;99.90;;;;;;5030422;28;20380;-60
2022/07/27 05:47:27;;;;;;;10.52;5.30;;;15.00;99.90;;;;;;5029343;28;20036;-60
2022/07/27 05:49:53;;;;;;;11.48;5.07;;;15.20;99.90;;;;;;5035824;28;20032;-60
2022/07/27 05:52:19;;;;;;;9.77;4.32;;;15.00;99.90;;;;;;5029577;28;20033;-60
2022/07/27 05:54:45;;;;;;;8.80;4.32;;;14.90;99.90;;;;;;5028748;28;20404;-60
2022/07/27 05:57:11;;;;;;;8.00;4.55;;;15.20;99.90;;;;;;5026125;28;20091;-61
2022/07/27 05:59:37;;;;;;;8.38;4.25;;;15.20;99.90;;;;;;5032207;28;20600;-60
2022/07/27 06:02:03;;;;;;;9.73;4.22;;;15.10;99.90;;;;;;5027301;28;20116;-60
2022/07/27 06:04:28;;;;;;;8.23;4.20;;;15.00;99.90;;;;;;5027891;28;20374;-60
2022/07/27 06:09:39;;;;;;;7.13;3.65;;;15.20;99.90;;;;;;5032577;28;20075;-60
2022/07/27 06:12:04;;;;;;;9.50;4.22;;;15.40;99.90;;;;;;5029937;28;20041;-60
2022/07/27 06:14:31;;;;;;;10.90;4.05;;;15.40;99.90;;;;;;5029399;28;20508;-59
2022/07/27 06:16:57;;;;;;;7.13;3.58;;;15.40;99.90;;;;;;5037081;28;20186;-60
2022/07/27 06:19:23;;;;;;;8.70;3.53;;;15.60;99.90;;;;;;5029994;28;20108;-61
2022/07/27 06:21:48;;;;;;;8.43;3.88;;;15.80;99.90;;;;;;5028346;28;20029;-60
2022/07/27 06:24:14;;;;;;;7.57;2.67;;;15.60;99.90;;;;;;5025076;28;20512;-61
2022/07/27 06:26:40;;;;;;;10.38;2.70;;;15.70;99.90;;;;;;5036729;28;20112;-60
2022/07/27 06:29:06;;;;;;;5.18;2.47;;;15.80;99.90;;;;;;5026474;28;20044;-60
2022/07/27 06:31:31;;;;;;;8.45;2.40;;;16.10;99.90;;;;;;5039915;28;20028;-60
2022/07/27 06:33:57;;;;;;;3.65;2.05;;;16.00;99.90;;;;;;5025962;28;20091;-60
2022/07/27 06:36:23;;;;;;;7.03;2.13;;;16.00;99.90;;;;;;5032772;28;20021;-60
2022/07/27 06:38:49;;;;;;;6.35;2.17;;;16.20;99.90;;;;;;5024904;28;20052;-60
2022/07/27 06:41:15;;;;;;;8.15;1.77;;;16.00;99.90;;;;;;5028824;28;20333;-60
2022/07/27 06:43:40;;;;;;;6.32;2.05;;;16.10;99.90;;;;;;5031363;28;20494;-60
2022/07/27 06:46:06;;;;;;;8.50;1.90;;;16.20;99.90;;;;;;5039777;28;20038;-60
2022/07/27 06:48:32;;;;;;;7.47;1.80;;;16.20;99.90;;;;;;5028321;28;20034;-60
2022/07/27 06:50:58;;;;;;;9.40;1.70;;;16.40;99.90;;;;;;5031577;28;20138;-60
2022/07/27 06:53:25;;;;;;;5.53;1.90;;;16.30;99.90;;;;;;5029942;28;20026;-60
2022/07/27 06:55:52;;;;;;;5.72;2.10;;;16.40;99.90;;;;;;5032485;28;20037;-60
2022/07/27 06:58:18;;;;;;;4.93;1.80;;;;;;;;;;5033551;28;20111;-61
2022/07/27 07:00:45;;;;;;;7.03;1.70;;;16.70;99.90;;;;;;5034046;28;20033;-60
2022/07/27 07:03:11;;;;;;;5.80;1.60;;;16.80;99.90;;;;;;5029697;28;20450;-61
2022/07/27 07:05:42;;;;;;;8.68;1.70;;;16.80;99.90;;;;;;5038509;28;20361;-61
2022/07/27 07:08:10;;;;;;;5.18;1.40;;;16.90;99.90;;;;;;5037881;28;20657;-60
2022/07/27 07:10:37;;;;;;;5.15;1.50;;;16.90;99.90;;;;;;5029524;28;20032;-60
2022/07/27 07:13:05;;;;;;;4.22;1.13;;;16.80;99.90;;;;;;5039597;28;20029;-60
2022/07/27 07:15:31;;;;;;;4.90;1.08;;;17.00;99.90;;;;;;5031567;28;20499;-60
2022/07/27 07:18:01;;;;;;;4.65;1.23;;;17.00;99.90;;;;;;5040539;28;20052;-60
2022/07/27 07:20:27;;;;;;;4.05;1.00;;;16.70;99.90;;;;;;5029143;28;20056;-61
2022/07/27 07:22:52;;;;;;;3.35;1.02;;;16.60;99.90;;;;;;5032040;28;20128;-60
2022/07/27 07:25:18;;;;;;;7.03;1.48;;;16.70;99.90;;;;;;5033977;28;20052;-60
2022/07/27 07:27:44;;;;;;;5.35;1.50;;;16.80;99.90;;;;;;5038192;28;20580;-60
2022/07/27 07:30:10;;;;;;;5.40;0.98;;;17.00;99.90;;;;;;5027769;28;20075;-60
2022/07/27 07:32:35;;;;;;;10.35;1.17;;;17.20;99.90;;;;;;5038071;28;20033;-60
2022/07/27 07:35:02;;;;;;;5.25;1.10;;;17.20;99.90;;;;;;5027840;28;20061;-60
2022/07/27 07:37:29;;;;;;;3.88;1.13;;;17.00;99.90;;;;;;5034454;28;20553;-60
2022/07/27 07:39:54;;;;;;;5.55;0.95;;;16.80;99.90;;;;;;5032846;28;20384;-60
2022/07/27 07:42:20;;;;;;;4.75;1.10;;;16.80;99.90;;;;;;5029842;28;20021;-61
2022/07/27 07:44:45;;;;;;;7.55;1.10;;;16.80;99.90;;;;;;5026681;28;20021;-60
2022/07/27 07:47:11;;;;;;;4.82;1.00;;;16.90;99.90;;;;;;5032125;28;20038;-61
2022/07/27 07:49:36;;;;;;;6.15;1.08;;;17.20;99.90;;;;;;5035468;28;20042;-60
2022/07/27 07:52:02;;;;;;;3.72;0.93;;;17.10;99.90;;;;;;5041546;28;20024;-60
2022/07/27 07:54:28;;;;;;;4.18;1.30;;;17.20;99.90;;;;;;5033776;28;20409;-60
2022/07/27 07:56:53;;;;;;;5.80;1.10;;;17.20;99.90;;;;;;5029356;28;20033;-60
2022/07/27 07:59:19;;;;;;;5.63;1.10;;;17.00;99.90;;;;;;5033022;28;20052;-61
2022/07/27 08:01:45;;;;;;;6.38;1.35;;;17.00;99.90;;;;;;5035036;28;20045;-61
2022/07/27 08:04:10;;;;;;;5.70;1.23;;;16.90;99.90;;;;;;5035928;28;20029;-60
2022/07/27 08:06:38;;;;;;;5.60;1.30;;;17.00;99.90;;;;;;5028008;28;20499;-60
2022/07/27 08:09:04;;;;;;;6.70;1.42;;;17.00;99.90;;;;;;5031948;28;20037;-60
2022/07/27 08:11:30;;;;;;;6.20;1.35;;;17.10;99.90;;;;;;5031364;28;20087;-61
2022/07/27 08:13:55;;;;;;;5.15;1.23;;;17.50;99.90;;;;;;5047179;28;20021;-60
2022/07/27 08:16:21;;;;;;;3.85;1.17;;;18.00;99.90;;;;;;5028188;28;20022;-60
2022/07/27 08:18:46;;;;;;;5.70;1.10;;;18.10;99.90;;;;;;5040861;28;20037;-61
2022/07/27 08:21:12;;;;;;;5.82;1.00;;;18.30;99.90;;;;;;5028398;28;20060;-61
2022/07/27 08:23:38;;;;;;;6.22;1.05;;;18.40;99.90;;;;;;5036414;28;20024;-61
2022/07/27 08:26:03;;;;;;;5.82;1.10;;;18.20;99.90;;;;;;5038782;28;20028;-61
2022/07/27 08:28:29;;;;;;;5.07;1.17;;;18.60;99.90;;;;;;5028952;28;20085;-61
2022/07/27 08:30:54;;;;;;;5.47;1.20;;;18.60;99.90;;;;;;5026411;28;20033;-60
2022/07/27 08:33:20;;;;;;;6.07;0.90;;;18.10;99.90;;;;;;5032625;28;20044;-60
2022/07/27 08:35:46;;;;;;;6.55;1.52;;;17.70;99.90;;;;;;5038838;28;20033;-60
2022/07/27 08:38:12;;;;;;;6.20;1.35;;;17.70;99.90;;;;;;5033195;28;20102;-61
2022/07/27 08:40:39;;;;;;;4.70;1.67;;;17.60;99.90;;;;;;5031873;28;20104;-59
2022/07/27 08:43:05;;;;;;;3.95;1.27;;;17.60;99.90;;;;;;5028937;28;20550;-61
2022/07/27 08:45:32;;;;;;;6.28;1.55;;;17.70;99.90;;;;;;5028469;28;20529;-61
2022/07/27 08:47:57;;;;;;;4.50;1.23;;;17.70;99.90;;;;;;5030869;28;20024;-61
2022/07/27 08:50:23;;;;;;;3.63;1.20;;;17.50;99.90;;;;;;5030816;28;20022;-60
2022/07/27 08:52:54;;;;;;;4.07;1.27;;;17.50;99.90;;;;;;5027651;28;20048;-60
2022/07/27 08:55:21;;;;;;;4.45;1.23;;;17.60;99.90;;;;;;5032289;28;20084;-60
2022/07/27 08:57:46;;;;;;;5.40;1.20;;;17.60;99.90;;;;;;5035883;28;20036;-60
2022/07/27 09:00:12;;;;;;;4.05;1.30;;;17.60;99.90;;;;;;5030542;28;20025;-60
2022/07/27 09:02:40;;;;;;;3.60;1.35;;;17.80;99.90;;;;;;5030391;28;20033;-60
2022/07/27 09:05:07;;;;;;;5.97;1.67;;;17.90;99.90;;;;;;5029776;28;20017;-60
2022/07/27 09:07:34;;;;;;;4.88;1.40;;;17.90;99.90;;;;;;5029265;28;20045;-60
2022/07/27 09:09:59;;;;;;;3.97;1.30;;;17.80;99.90;;;;;;5034270;28;20048;-60
2022/07/27 09:12:29;;;;;;;2.33;0.90;;;17.80;99.90;;;;;;5024971;28;20310;-60
2022/07/27 09:15:12;;;;;;;2.92;1.00;;;17.90;99.90;;;;;;5031458;28;20040;-60
2022/07/27 09:17:41;;;;;;;5.05;1.05;;;17.90;99.90;;;;;;5041046;28;20029;-60
2022/07/27 09:20:10;;;;;;;4.70;1.35;;;18.20;99.90;;;;;;5028657;28;20080;-60
2022/07/27 09:22:45;;;;;;;4.00;1.40;;;18.40;99.90;;;;;;5030405;28;20076;-61
2022/07/27 09:25:13;;;;;;;3.60;1.63;;;18.60;99.90;;;;;;5031464;28;20029;-60
2022/07/27 09:27:40;;;;;;;5.28;1.50;;;18.80;99.90;;;;;;5047439;28;20527;-60
2022/07/27 09:30:09;;;;;;;2.97;1.10;;;18.40;99.90;;;;;;5026400;28;20502;-60
2022/07/27 09:32:35;;;;;;;3.92;1.63;;;18.20;99.90;;;;;;5030804;28;20045;-60
2022/07/27 09:35:18;;;;;;;4.25;1.30;;;18.40;99.90;;;;;;5026663;28;20469;-60
2022/07/27 09:37:44;;;;;;;3.25;1.08;;;18.60;99.90;;;;;;5041206;28;20111;-61
2022/07/27 09:40:11;;;;;;;3.38;1.25;;;18.50;99.90;;;;;;5024802;28;20116;-60
2022/07/27 09:42:37;;;;;;;2.08;1.08;;;18.60;99.90;;;;;;5033408;28;20029;-60
2022/07/27 09:45:03;;;;;;;4.55;1.02;;;18.80;99.90;;;;;;5026086;28;20440;-61
2022/07/27 09:47:29;;;;;;;2.40;1.00;;;18.80;99.90;;;;;;5030896;28;20036;-61
2022/07/27 09:49:57;;;;;;;2.85;0.90;;;18.50;99.90;;;;;;5029973;28;20479;-61
2022/07/27 09:52:29;;;;;;;5.05;1.20;;;18.70;99.90;;;;;;5042160;28;20026;-60
2022/07/27 09:55:05;;;;;;;8.05;1.65;;;18.90;99.90;;;;;;5037605;28;20685;-61
2022/07/27 09:57:53;;;;;;;3.35;1.00;;;19.10;99.90;;;;;;5028445;28;20034;-61
2022/07/27 10:00:20;;;;;;;2.88;0.95;;;19.10;99.90;;;;;;5036588;28;20037;-60
2022/07/27 10:02:47;;;;;;;2.95;0.90;;;19.30;99.90;;;;;;5032654;28;20493;-60
2022/07/27 10:05:16;;;;;;;3.78;1.00;;;19.20;99.90;;;;;;5029810;28;20141;-60
2022/07/27 10:07:42;;;;;;;3.88;1.10;;;18.90;99.90;;;;;;5040784;28;20158;-60
2022/07/27 10:10:08;;;;;;;3.15;0.98;;;19.00;99.90;;;;;;5029903;28;20037;-61
2022/07/27 10:12:34;;;;;;;4.70;1.10;;;19.00;99.90;;;;;;5024468;28;20033;-61
2022/07/27 10:14:59;;;;;;;3.05;0.70;;;19.20;99.90;;;;;;5033193;28;20017;-61
2022/07/27 10:17:25;;;;;;;4.53;0.73;;;19.20;99.90;;;;;;5038204;28;20432;-61
2022/07/27 10:19:52;;;;;;;3.13;0.82;;;19.10;99.90;;;;;;5033218;28;20033;-60
2022/07/27 10:22:57;;;;;;;2.65;0.82;;;19.10;99.90;;;;;;5030249;28;20028;-61
2022/07/27 10:25:25;;;;;;;2.83;0.82;;;19.40;99.90;;;;;;5026933;28;20037;-61
2022/07/27 10:28:15;;;;;;;5.93;0.90;;;19.60;99.90;;;;;;5028191;28;20419;-61
2022/07/27 10:30:40;;;;;;;4.05;1.13;;;20.00;99.90;;;;;;5026451;28;20651;-60
2022/07/27 10:33:32;;;;;;;2.33;0.88;;;20.20;99.90;;;;;;5030455;28;20029;-60
2022/07/27 10:35:57;;;;;;;4.72;1.10;;;19.80;99.90;;;;;;5038257;28;20492;-60
2022/07/27 10:38:23;;;;;;;3.25;0.68;;;19.60;99.90;;;;;;5029229;28;20056;-61
2022/07/27 10:41:24;;;;;;;2.33;0.55;;;19.50;99.90;;;;;;5034402;28;20033;-60
2022/07/27 10:44:13;;;;;;;2.90;0.60;;;19.60;99.90;;;;;;5031981;28;20337;-61
2022/07/27 10:46:51;;;;;;;4.45;1.00;;;19.40;99.90;;;;;;5028816;28;20571;-60
2022/07/27 10:49:21;;;;;;;2.47;0.70;;;19.50;99.90;;;;;;5027689;28;20022;-61
2022/07/27 10:51:48;;;;;;;3.70;0.77;;;19.70;99.90;;;;;;5031401;28;20081;-60
2022/07/27 10:54:31;;;;;;;2.47;0.70;;;20.10;99.90;;;;;;5024133;28;20022;-60
2022/07/27 10:56:58;;;;;;;3.83;0.80;;;20.60;99.90;;;;;;5033784;28;20504;-60
2022/07/27 10:59:39;;;;;;;2.13;0.80;;;20.40;99.90;;;;;;5025947;28;20029;-60
2022/07/27 11:02:06;;;;;;;3.03;0.60;;;20.50;99.90;;;;;;5033006;28;20033;-60
2022/07/27 11:04:32;;;;;;;3.88;0.70;;;20.50;99.90;;;;;;5029681;28;20021;-60
2022/07/27 11:07:00;;;;;;;2.88;0.60;;;20.50;99.90;;;;;;5041577;28;20109;-60
2022/07/27 11:09:41;;;;;;;2.47;0.60;;;20.10;99.90;;;;;;5025438;28;20030;-60
2022/07/27 11:12:10;;;;;;;3.00;0.55;;;20.00;99.90;;;;;;5030354;28;20028;-61
2022/07/27 11:14:51;;;;;;;2.33;0.70;;;19.90;99.90;;;;;;5030589;28;20401;-60
2022/07/27 11:17:19;;;;;;;2.20;0.70;;;19.50;99.90;;;;;;5037907;28;20726;-60
2022/07/27 11:19:54;;;;;;;2.45;0.90;;;19.60;99.90;;;;;;5044418;28;20717;-60
2022/07/27 11:22:33;;;;;;;2.33;0.70;;;19.80;99.90;;;;;;5031624;28;20060;-60
2022/07/27 11:25:00;;;;;;;4.57;0.88;;;19.70;99.90;;;;;;5032691;28;20029;-61
2022/07/27 11:27:27;;;;;;;2.33;0.68;;;19.60;99.90;;;;;;5026352;28;20032;-60
2022/07/27 11:29:52;;;;;;;2.22;0.63;;;19.70;99.90;;;;;;5030054;28;20025;-60
2022/07/27 11:32:19;;;;;;;2.20;0.50;;;19.60;99.90;;;;;;5035383;28;20043;-61
2022/07/27 11:34:45;;;;;;;2.95;0.70;;;19.50;99.90;;;;;;5029764;28;20025;-60
2022/07/27 11:37:22;;;;;;;2.38;0.60;;;19.60;99.90;;;;;;5027354;28;20033;-60
2022/07/27 11:39:56;;;;;;;3.08;0.50;;;19.80;99.90;;;;;;5039846;28;20105;-61
2022/07/27 11:42:22;;;;;;;1.90;0.60;;;19.60;99.90;;;;;;5032878;28;20516;-61
2022/07/27 11:44:48;;;;;;;2.25;0.70;;;19.70;99.90;;;;;;5028439;28;20026;-61
2022/07/27 11:47:18;;;;;;;3.20;0.60;;;19.80;99.90;;;;;;5033933;28;20029;-63
2022/07/27 11:49:43;;;;;;;0.95;0.50;;;19.90;99.90;;;;;;5032590;28;20352;-60
2022/07/27 11:52:09;;;;;;;0.90;0.60;;;19.80;99.90;;;;;;5042134;28;20100;-61
2022/07/27 11:54:37;;;;;;;1.75;0.55;;;19.90;99.90;;;;;;5027031;28;20063;-61
2022/07/27 11:57:05;;;;;;;2.35;0.60;;;20.10;99.90;;;;;;5030777;28;20105;-60
2022/07/27 11:59:33;;;;;;;1.88;0.68;;;20.30;99.90;;;;;;5030342;28;20481;-60
2022/07/27 12:02:06;;;;;;;1.27;0.40;;;20.10;99.90;;;;;;5038095;28;20059;-60
2022/07/27 12:04:37;;;;;;;2.00;0.50;;;20.30;99.90;;;;;;5035537;28;20057;-60
2022/07/27 12:07:09;;;;;;;2.55;0.60;;;20.60;99.90;;;;;;5031513;28;20772;-60
2022/07/27 12:09:56;;;;;;;2.72;0.60;;;20.90;99.90;;;;;;5029768;28;20503;-60
2022/07/27 12:12:24;;;;;;;3.08;0.50;;;21.10;99.90;;;;;;5023637;28;20039;-61
2022/07/27 12:14:55;;;;;;;2.28;0.50;;;20.90;99.90;;;;;;5037684;28;20129;-60
2022/07/27 12:17:30;;;;;;;4.30;0.70;;;20.70;99.90;;;;;;5042014;28;20500;-61
2022/07/27 12:20:06;;;;;;;2.20;0.60;;;20.60;99.90;;;;;;5037136;28;20061;-60
2022/07/27 12:22:50;;;;;;;2.80;0.70;;;20.30;99.90;;;;;;5026317;28;20033;-60
2022/07/27 12:25:16;;;;;;;3.40;0.70;;;20.50;99.90;;;;;;5035131;28;20033;-60
2022/07/27 12:28:04;;;;;;;2.30;0.55;;;20.60;99.90;;;;;;5030586;28;20017;-60
2022/07/27 12:30:45;;;;;;;1.20;0.38;;;20.80;99.90;;;;;;5030596;28;20485;-60
2022/07/27 12:33:31;;;;;;;1.05;0.70;;;20.80;99.90;;;;;;5032071;28;20045;-61
2022/07/27 12:35:58;;;;;;;2.50;0.55;;;20.90;99.90;;;;;;5038838;28;20477;-60
2022/07/27 12:38:34;;;;;;;1.27;0.70;;;21.00;99.90;;;;;;5028505;28;20025;-61
2022/07/27 12:41:00;;;;;;;2.83;0.50;;;21.00;99.90;;;;;;5027080;28;20053;-61
2022/07/27 12:43:25;;;;;;;4.07;0.80;;;21.00;99.90;;;;;;5032419;28;20018;-60
2022/07/27 12:45:53;;;;;;;2.42;0.60;;;20.90;99.90;;;;;;5037115;28;20029;-60
2022/07/27 12:48:37;;;;;;;5.63;0.75;;;21.00;99.90;;;;;;5041537;28;20101;-60
2022/07/27 12:51:05;;;;;;;10.20;1.15;;;21.00;99.90;;;;;;5024837;28;20025;-60
2022/07/27 12:53:32;;;;;;;3.63;0.88;;;21.00;99.90;;;;;;5030594;28;20060;-61
2022/07/27 12:56:00;;;;;;;3.25;0.73;;;20.70;99.90;;;;;;5035648;28;20038;-60